createdAt,value
2023-05-05T00:00:52.991Z,0.00
2023-05-05T00:01:53.005Z,0.00
2023-05-05T00:02:53.032Z,0.00
2023-05-05T00:03:53.060Z,0.00
2023-05-05T00:04:52.996Z,0.00
2023-05-05T00:05:53.009Z,9.83
2023-05-05T00:06:53.002Z,25.47
2023-05-05T00:07:53.375Z,25.00
2023-05-05T00:08:53.418Z,25.24
2023-05-05T00:09:53.417Z,24.25
2023-05-05T00:10:53.451Z,25.04
2023-05-05T00:11:53.430Z,25.00
2023-05-05T00:12:53.450Z,25.24
2023-05-05T00:13:53.420Z,26.65
2023-05-05T00:14:53.425Z,26.46
2023-05-05T00:15:53.491Z,26.88
2023-05-05T00:16:53.454Z,25.55
2023-05-05T00:17:53.537Z,26.60
2023-05-05T00:18:53.427Z,25.00
2023-05-05T00:19:53.424Z,27.91
2023-05-05T00:20:53.428Z,25.30
2023-05-05T00:21:53.438Z,26.58
2023-05-05T00:22:53.423Z,26.86
2023-05-05T00:23:53.436Z,27.07
2023-05-05T00:24:53.425Z,29.38
2023-05-05T00:25:53.422Z,27.52
2023-05-05T00:26:53.459Z,27.83
2023-05-05T00:27:53.446Z,28.49
2023-05-05T00:28:53.471Z,25.51
2023-05-05T00:29:53.484Z,27.13
2023-05-05T00:30:53.546Z,29.32
2023-05-05T00:31:53.524Z,27.70
2023-05-05T00:32:53.602Z,25.00
2023-05-05T00:33:53.567Z,28.92
2023-05-05T00:34:53.589Z,28.33
2023-05-05T00:35:53.617Z,28.03
2023-05-05T00:36:53.664Z,29.41
2023-05-05T00:37:53.658Z,28.32
2023-05-05T00:38:53.675Z,26.62
2023-05-05T00:39:53.703Z,25.69
2023-05-05T00:40:53.737Z,27.27
2023-05-05T00:41:53.769Z,28.24
2023-05-05T00:42:53.804Z,28.17
2023-05-05T00:43:53.820Z,28.90
2023-05-05T00:44:53.832Z,29.41
2023-05-05T00:45:53.861Z,29.21
2023-05-05T00:46:53.877Z,27.95
2023-05-05T00:47:53.929Z,30.38
2023-05-05T00:48:53.992Z,29.14
2023-05-05T00:49:53.950Z,28.89
2023-05-05T00:50:53.983Z,30.37
2023-05-05T00:51:53.985Z,29.95
2023-05-05T00:52:54.016Z,29.84
2023-05-05T00:53:54.035Z,27.68
2023-05-05T00:54:54.067Z,28.81
2023-05-05T00:55:54.084Z,28.43
2023-05-05T00:56:54.100Z,27.09
2023-05-05T00:57:54.124Z,25.68
2023-05-05T00:58:54.170Z,30.12
2023-05-05T00:59:54.165Z,29.82
2023-05-05T01:00:54.202Z,29.32
2023-05-05T01:01:54.260Z,26.88
2023-05-05T01:02:54.411Z,27.09
2023-05-05T01:03:54.346Z,28.77
2023-05-05T01:04:54.277Z,29.66
2023-05-05T01:05:54.308Z,31.32
2023-05-05T01:06:54.325Z,27.41
2023-05-05T01:07:54.353Z,27.65
2023-05-05T01:08:54.371Z,25.69
2023-05-05T01:10:04.453Z,27.67
2023-05-05T01:10:54.398Z,28.02
2023-05-05T01:11:54.377Z,29.04
2023-05-05T01:12:54.432Z,28.41
2023-05-05T01:13:54.366Z,29.51
2023-05-05T01:14:54.381Z,28.20
2023-05-05T01:15:54.376Z,26.58
2023-05-05T01:16:54.368Z,25.73
2023-05-05T01:17:54.368Z,28.88
2023-05-05T01:18:54.328Z,26.66
2023-05-05T01:19:54.341Z,27.50
2023-05-05T01:20:54.322Z,30.25
2023-05-05T01:21:54.307Z,28.93
2023-05-05T01:22:54.300Z,28.93
2023-05-05T01:23:54.293Z,26.47
2023-05-05T01:24:54.282Z,30.27
2023-05-05T01:25:54.288Z,29.62
2023-05-05T01:26:54.278Z,28.54
2023-05-05T01:27:54.269Z,27.83
2023-05-05T01:28:54.259Z,30.87
2023-05-05T01:29:54.250Z,29.25
2023-05-05T01:30:54.271Z,29.00
2023-05-05T01:31:54.290Z,26.52
2023-05-05T01:32:54.266Z,26.81
2023-05-05T01:33:54.219Z,29.64
2023-05-05T01:34:54.209Z,30.05
2023-05-05T01:35:54.197Z,30.30
2023-05-05T01:36:54.205Z,28.91
2023-05-05T01:37:54.191Z,31.78
2023-05-05T01:38:54.181Z,29.56
2023-05-05T01:39:54.166Z,26.78
2023-05-05T01:40:54.172Z,28.23
2023-05-05T01:41:54.158Z,27.99
2023-05-05T01:42:54.155Z,29.90
2023-05-05T01:43:54.153Z,28.21
2023-05-05T01:44:54.164Z,29.68
2023-05-05T01:45:54.211Z,26.54
2023-05-05T01:46:54.155Z,29.01
2023-05-05T01:47:54.144Z,27.12
2023-05-05T01:48:54.116Z,33.16
2023-05-05T01:49:54.107Z,26.45
2023-05-05T01:50:54.113Z,27.15
2023-05-05T01:51:54.094Z,28.16
2023-05-05T01:52:54.078Z,27.94
2023-05-05T01:53:54.072Z,28.68
2023-05-05T01:54:54.068Z,26.68
2023-05-05T01:55:54.082Z,27.03
2023-05-05T01:56:54.051Z,28.42
2023-05-05T01:57:54.074Z,29.12
2023-05-05T01:58:54.052Z,27.55
2023-05-05T01:59:54.078Z,27.59
2023-05-05T02:00:54.145Z,26.34
2023-05-05T02:01:54.146Z,29.01
2023-05-05T02:02:54.308Z,31.63
2023-05-05T02:03:54.202Z,29.22
2023-05-05T02:04:54.239Z,27.81
2023-05-05T02:05:54.257Z,28.02
2023-05-05T02:06:54.286Z,29.54
2023-05-05T02:07:54.324Z,28.84
2023-05-05T02:08:54.350Z,26.30
2023-05-05T02:09:54.383Z,28.72
2023-05-05T02:10:54.431Z,26.33
2023-05-05T02:11:54.453Z,27.95
2023-05-05T02:12:54.524Z,27.86
2023-05-05T02:13:54.594Z,25.98
2023-05-05T02:14:54.549Z,28.29
2023-05-05T02:15:54.610Z,29.15
2023-05-05T02:16:54.640Z,28.96
2023-05-05T02:17:54.704Z,27.27
2023-05-05T02:18:54.707Z,27.75
2023-05-05T02:19:54.733Z,28.68
2023-05-05T02:20:54.757Z,29.52
2023-05-05T02:21:54.805Z,30.16
2023-05-05T02:22:54.832Z,29.22
2023-05-05T02:23:54.914Z,29.32
2023-05-05T02:24:54.912Z,31.00
2023-05-05T02:25:54.933Z,30.79
2023-05-05T02:26:54.969Z,26.51
2023-05-05T02:27:55.006Z,27.15
2023-05-05T02:28:55.050Z,30.00
2023-05-05T02:29:55.091Z,27.92
2023-05-05T02:30:55.138Z,26.79
2023-05-05T02:31:55.156Z,28.71
2023-05-05T02:32:55.218Z,28.41
2023-05-05T02:33:55.233Z,29.48
2023-05-05T02:34:55.294Z,31.97
2023-05-05T02:35:55.315Z,29.64
2023-05-05T02:36:55.334Z,29.81
2023-05-05T02:37:55.379Z,26.94
2023-05-05T02:38:55.417Z,28.11
2023-05-05T02:39:55.456Z,28.69
2023-05-05T02:40:55.492Z,30.55
2023-05-05T02:41:55.531Z,27.54
2023-05-05T02:42:55.587Z,31.72
2023-05-05T02:43:55.622Z,28.02
2023-05-05T02:44:55.639Z,30.24
2023-05-05T02:45:55.686Z,27.43
2023-05-05T02:46:55.905Z,28.96
2023-05-05T02:47:55.851Z,31.46
2023-05-05T02:48:55.815Z,26.55
2023-05-05T02:49:55.882Z,26.42
2023-05-05T02:50:55.917Z,30.64
2023-05-05T02:51:55.935Z,31.12
2023-05-05T02:52:55.977Z,29.02
2023-05-05T02:53:56.028Z,28.98
2023-05-05T02:54:56.063Z,29.55
2023-05-05T02:55:56.094Z,30.24
2023-05-05T02:56:56.133Z,27.16
2023-05-05T02:57:56.164Z,28.22
2023-05-05T02:58:56.205Z,29.02
2023-05-05T02:59:56.247Z,28.83
2023-05-05T03:00:56.287Z,27.26
2023-05-05T03:01:56.461Z,31.01
2023-05-05T03:02:56.452Z,29.36
2023-05-05T03:03:56.431Z,32.74
2023-05-05T03:04:56.422Z,25.95
2023-05-05T03:05:56.467Z,27.23
2023-05-05T03:06:56.530Z,28.55
2023-05-05T03:07:56.559Z,27.94
2023-05-05T03:08:56.596Z,25.63
2023-05-05T03:09:56.650Z,27.24
2023-05-05T03:10:56.675Z,29.54
2023-05-05T03:11:56.721Z,29.36
2023-05-05T03:12:56.813Z,28.02
2023-05-05T03:13:56.805Z,31.10
2023-05-05T03:14:56.833Z,32.12
2023-05-05T03:15:56.926Z,31.19
2023-05-05T03:16:56.925Z,28.85
2023-05-05T03:17:56.990Z,30.39
2023-05-05T03:18:56.994Z,29.53
2023-05-05T03:19:57.027Z,29.97
2023-05-05T03:20:57.067Z,27.77
2023-05-05T03:21:57.116Z,26.97
2023-05-05T03:22:57.910Z,31.18
2023-05-05T03:23:57.180Z,29.65
2023-05-05T03:24:57.228Z,30.42
2023-05-05T03:25:57.262Z,30.14
2023-05-05T03:26:57.303Z,28.42
2023-05-05T03:27:57.345Z,29.57
2023-05-05T03:28:57.385Z,27.75
2023-05-05T03:29:57.456Z,29.78
2023-05-05T03:30:57.469Z,33.56
2023-05-05T03:31:57.578Z,30.05
2023-05-05T03:32:57.593Z,28.35
2023-05-05T03:33:57.583Z,29.27
2023-05-05T03:34:57.624Z,29.31
2023-05-05T03:35:57.660Z,31.92
2023-05-05T03:36:57.705Z,30.11
2023-05-05T03:37:57.751Z,33.65
2023-05-05T03:38:57.851Z,31.81
2023-05-05T03:39:57.830Z,27.72
2023-05-05T03:40:57.878Z,28.13
2023-05-05T03:41:57.930Z,25.00
2023-05-05T03:42:57.940Z,28.09
2023-05-05T03:43:57.993Z,30.33
2023-05-05T03:44:58.016Z,27.00
2023-05-05T03:45:58.089Z,30.69
2023-05-05T03:46:58.104Z,27.35
2023-05-05T03:47:58.539Z,28.99
2023-05-05T03:48:58.558Z,25.00
2023-05-05T03:49:58.555Z,26.59
2023-05-05T03:50:58.555Z,26.91
2023-05-05T03:51:58.558Z,26.28
2023-05-05T03:52:58.580Z,32.71
2023-05-05T03:53:58.556Z,28.32
2023-05-05T03:54:58.641Z,27.44
2023-05-05T03:55:58.559Z,27.04
2023-05-05T03:56:58.562Z,30.34
2023-05-05T03:57:58.559Z,28.96
2023-05-05T03:58:58.586Z,29.30
2023-05-05T03:59:58.623Z,27.11
2023-05-05T04:00:58.665Z,27.86
2023-05-05T04:01:58.741Z,28.31
2023-05-05T04:02:58.855Z,32.01
2023-05-05T04:03:58.819Z,27.07
2023-05-05T04:04:58.852Z,31.24
2023-05-05T04:05:58.899Z,28.90
2023-05-05T04:06:58.929Z,27.26
2023-05-05T04:07:58.982Z,29.22
2023-05-05T04:08:59.027Z,25.70
2023-05-05T04:09:59.099Z,32.66
2023-05-05T04:10:59.140Z,31.71
2023-05-05T04:11:59.526Z,29.55
2023-05-05T04:12:59.629Z,29.45
2023-05-05T04:13:59.560Z,28.58
2023-05-05T04:14:59.574Z,29.33
2023-05-05T04:15:59.684Z,26.41
2023-05-05T04:16:59.565Z,30.32
2023-05-05T04:17:59.648Z,28.36
2023-05-05T04:18:59.574Z,28.47
2023-05-05T04:19:59.594Z,28.86
2023-05-05T04:20:59.641Z,29.34
2023-05-05T04:21:59.651Z,28.95
2023-05-05T04:22:59.692Z,25.48
2023-05-05T04:23:59.746Z,30.70
2023-05-05T04:24:59.779Z,29.03
2023-05-05T04:25:59.853Z,25.71
2023-05-05T04:26:59.887Z,27.43
2023-05-05T04:27:59.913Z,27.38
2023-05-05T04:28:59.964Z,25.00
2023-05-05T04:30:00.056Z,30.59
2023-05-05T04:31:00.136Z,28.33
2023-05-05T04:32:00.128Z,26.21
2023-05-05T04:33:00.185Z,27.47
2023-05-05T04:34:00.235Z,27.87
2023-05-05T04:35:00.219Z,26.62
2023-05-05T04:36:00.282Z,27.01
2023-05-05T04:37:00.312Z,30.50
2023-05-05T04:38:00.354Z,30.88
2023-05-05T04:39:00.453Z,29.50
2023-05-05T04:40:00.430Z,27.85
2023-05-05T04:41:00.479Z,30.79
2023-05-05T04:42:00.519Z,30.94
2023-05-05T04:43:00.601Z,29.59
2023-05-05T04:44:00.624Z,28.28
2023-05-05T04:45:00.687Z,32.13
2023-05-05T04:46:00.697Z,27.06
2023-05-05T04:47:00.734Z,28.51
2023-05-05T04:48:00.814Z,28.86
2023-05-05T04:49:00.851Z,29.64
2023-05-05T04:50:00.864Z,27.67
2023-05-05T04:51:00.921Z,28.56
2023-05-05T04:52:00.954Z,29.89
2023-05-05T04:53:01.008Z,31.24
2023-05-05T04:54:01.106Z,30.06
2023-05-05T04:55:01.095Z,28.35
2023-05-05T04:56:01.146Z,27.29
2023-05-05T04:57:01.187Z,30.89
2023-05-05T04:58:01.255Z,27.09
2023-05-05T04:59:01.304Z,31.60
2023-05-05T05:00:01.384Z,25.17
2023-05-05T05:01:01.360Z,27.92
2023-05-05T05:02:01.446Z,28.99
2023-05-05T05:03:01.581Z,30.44
2023-05-05T05:04:01.614Z,25.97
2023-05-05T05:05:01.550Z,29.12
2023-05-05T05:06:01.595Z,27.14
2023-05-05T05:07:01.643Z,28.64
2023-05-05T05:08:01.702Z,27.29
2023-05-05T05:09:01.740Z,31.54
2023-05-05T05:10:01.786Z,25.30
2023-05-05T05:11:01.814Z,26.91
2023-05-05T05:12:01.860Z,25.19
2023-05-05T05:13:01.949Z,31.76
2023-05-05T05:14:01.949Z,31.44
2023-05-05T05:15:02.036Z,29.22
2023-05-05T05:16:02.099Z,26.81
2023-05-05T05:17:02.085Z,26.74
2023-05-05T05:18:02.590Z,27.91
2023-05-05T05:19:02.161Z,29.03
2023-05-05T05:20:02.213Z,29.59
2023-05-05T05:21:02.433Z,36.36
2023-05-05T05:22:02.298Z,33.10
2023-05-05T05:23:02.368Z,29.85
2023-05-05T05:24:02.381Z,34.34
2023-05-05T05:25:02.420Z,38.37
2023-05-05T05:26:02.461Z,39.71
2023-05-05T05:27:02.490Z,40.17
2023-05-05T05:28:10.131Z,39.31
2023-05-05T05:29:02.522Z,39.84
2023-05-05T05:30:02.541Z,41.99
2023-05-05T05:31:02.562Z,47.64
2023-05-05T05:32:02.527Z,56.89
2023-05-05T05:33:02.535Z,99.25
2023-05-05T05:34:02.491Z,93.79
2023-05-05T05:35:02.529Z,102.64
2023-05-05T05:36:02.549Z,103.07
2023-05-05T05:37:02.466Z,97.18
2023-05-05T05:38:02.456Z,96.47
2023-05-05T05:39:02.477Z,102.81
2023-05-05T05:40:02.447Z,104.78
2023-05-05T05:41:02.464Z,107.34
2023-05-05T05:42:02.439Z,112.16
2023-05-05T05:43:02.416Z,117.76
2023-05-05T05:44:02.434Z,117.26
2023-05-05T05:45:02.401Z,124.01
2023-05-05T05:46:02.429Z,126.66
2023-05-05T05:47:02.507Z,122.37
2023-05-05T05:48:02.412Z,125.62
2023-05-05T05:49:02.376Z,132.17
2023-05-05T05:50:02.368Z,149.71
2023-05-05T05:51:02.404Z,155.02
2023-05-05T05:52:02.466Z,164.00
2023-05-05T05:53:05.644Z,189.32
2023-05-05T05:54:05.540Z,164.26
2023-05-05T05:55:05.532Z,155.75
2023-05-05T05:56:09.737Z,154.26
2023-05-05T05:57:05.663Z,163.50
2023-05-05T05:58:02.508Z,157.30
2023-05-05T05:59:02.309Z,142.78
2023-05-05T06:00:02.598Z,137.14
2023-05-05T06:01:02.287Z,131.59
2023-05-05T06:02:18.085Z,130.19
2023-05-05T06:03:02.595Z,142.95
2023-05-05T06:04:03.630Z,134.41
2023-05-05T06:05:03.054Z,135.33
2023-05-05T06:07:09.665Z,138.83
2023-05-05T06:08:02.240Z,149.93
2023-05-05T06:09:02.455Z,136.51
2023-05-05T06:10:14.535Z,132.29
2023-05-05T06:11:02.205Z,141.84
2023-05-05T06:12:02.451Z,137.68
2023-05-05T06:13:02.363Z,132.67
2023-05-05T06:16:05.394Z,152.00
2023-05-05T06:17:02.468Z,149.03
2023-05-05T06:18:02.210Z,131.42
2023-05-05T06:19:02.141Z,126.85
2023-05-05T06:20:02.161Z,122.31
2023-05-05T06:21:02.125Z,121.46
2023-05-05T06:22:02.158Z,123.05
2023-05-05T06:23:02.116Z,118.02
2023-05-05T06:24:02.493Z,116.57
2023-05-05T06:25:02.100Z,117.22
2023-05-05T06:26:03.112Z,115.35
2023-05-05T06:27:02.796Z,119.28
2023-05-05T06:28:02.102Z,113.45
2023-05-05T06:29:06.324Z,116.26
2023-05-05T06:30:02.127Z,116.58
2023-05-05T06:31:02.098Z,116.51
2023-05-05T06:32:02.059Z,112.89
2023-05-05T06:33:02.094Z,114.79
2023-05-05T06:34:02.051Z,115.73
2023-05-05T06:35:02.225Z,113.56
2023-05-05T06:36:02.057Z,115.88
2023-05-05T06:37:02.082Z,113.55
2023-05-05T06:38:02.103Z,110.56
2023-05-05T06:39:02.482Z,109.54
2023-05-05T06:40:02.163Z,109.85
2023-05-05T06:41:02.977Z,105.36
2023-05-05T06:42:09.721Z,109.92
2023-05-05T06:43:02.222Z,110.20
2023-05-05T06:44:02.508Z,110.99
2023-05-05T06:45:02.215Z,111.32
2023-05-05T06:46:02.596Z,110.86
2023-05-05T06:47:02.207Z,109.39
2023-05-05T06:48:02.253Z,112.55
2023-05-05T06:49:02.500Z,111.89
2023-05-05T06:50:02.253Z,107.70
2023-05-05T06:51:02.913Z,105.64
2023-05-05T06:52:02.117Z,106.94
2023-05-05T06:53:02.103Z,106.87
2023-05-05T12:17:27.307Z,25.00
2023-05-05T12:18:28.176Z,25.00
2023-05-05T12:19:28.172Z,25.00
2023-05-05T12:20:28.169Z,25.00
2023-05-05T12:21:28.149Z,25.00
2023-05-05T12:22:28.146Z,25.00
2023-05-05T12:23:28.141Z,24.43
2023-05-05T12:24:28.141Z,36.39
2023-05-05T12:25:28.125Z,35.10
2023-05-05T12:26:28.167Z,26.37
2023-05-05T12:27:28.138Z,26.25
2023-05-05T12:28:28.110Z,28.03
2023-05-05T12:29:28.089Z,28.89
2023-05-05T12:30:28.097Z,44.15
2023-05-05T12:31:28.120Z,29.71
2023-05-05T12:32:28.130Z,30.95
2023-05-05T12:33:28.161Z,24.25
2023-05-05T12:34:28.068Z,34.87
2023-05-05T12:35:28.059Z,39.08
2023-05-05T12:36:30.312Z,35.90
2023-05-05T12:37:28.065Z,36.23
2023-05-05T12:38:28.060Z,36.89
2023-05-05T12:39:28.061Z,37.29
2023-05-05T12:40:28.062Z,38.20
2023-05-05T12:41:28.059Z,39.34
2023-05-05T12:42:28.062Z,45.47
2023-05-05T12:43:28.062Z,44.95
2023-05-05T12:44:28.059Z,47.57
2023-05-05T12:45:28.064Z,52.12
2023-05-05T12:46:28.098Z,47.75
2023-05-05T12:47:28.087Z,48.31
2023-05-05T12:48:28.390Z,48.44
2023-05-05T12:49:28.179Z,50.46
2023-05-05T12:50:28.378Z,55.75
2023-05-05T12:51:28.112Z,56.74
2023-05-05T12:52:28.098Z,59.56
2023-05-05T12:53:28.104Z,60.41
2023-05-05T12:54:28.113Z,61.03
2023-05-05T12:55:28.877Z,60.25
2023-05-05T12:56:28.138Z,65.11
2023-05-05T12:57:28.118Z,67.27
2023-05-05T12:58:28.115Z,66.94
2023-05-05T12:59:28.117Z,71.47
2023-05-05T13:00:28.127Z,73.60
2023-05-05T13:01:28.136Z,71.31
2023-05-05T13:02:28.221Z,74.97
2023-05-05T13:03:28.254Z,77.85
2023-05-05T13:04:28.149Z,76.26
2023-05-05T13:05:28.517Z,77.99
2023-05-05T13:06:28.134Z,78.72
2023-05-05T13:07:28.132Z,84.07
2023-05-05T13:08:28.133Z,84.52
2023-05-05T13:09:28.132Z,86.00
2023-05-05T13:10:28.172Z,83.53
2023-05-05T13:11:28.141Z,88.90
2023-05-05T13:12:28.147Z,90.26
2023-05-05T13:13:28.404Z,91.04
2023-05-05T13:14:28.148Z,94.77
2023-05-05T13:15:28.142Z,93.62
2023-05-05T13:16:28.390Z,94.14
2023-05-05T13:17:28.150Z,95.51
2023-05-05T13:18:28.109Z,98.64
2023-05-05T13:19:28.102Z,99.73
2023-05-05T13:20:27.765Z,96.92
2023-05-05T13:21:28.202Z,101.88
2023-05-05T13:22:28.152Z,104.76
2023-05-05T13:23:28.176Z,105.92
2023-05-05T13:24:37.945Z,106.38
2023-05-05T13:25:28.389Z,106.81
2023-05-05T13:26:28.166Z,107.99
2023-05-05T13:27:28.143Z,108.76
2023-05-05T13:28:28.157Z,111.19
2023-05-05T13:29:31.379Z,112.93
2023-05-05T13:30:28.148Z,106.98
2023-05-05T13:31:28.166Z,108.41
2023-05-05T13:32:28.168Z,109.50
2023-05-05T13:33:28.139Z,112.19
2023-05-05T13:34:28.111Z,114.29
2023-05-05T13:35:27.730Z,119.58
2023-05-05T13:36:27.735Z,117.98
2023-05-05T13:37:27.873Z,119.70
2023-05-05T13:38:27.726Z,120.78
2023-05-05T13:39:27.717Z,119.89
2023-05-05T13:40:27.701Z,119.91
2023-05-05T13:41:27.704Z,121.45
2023-05-05T13:42:27.676Z,121.70
2023-05-05T13:43:27.673Z,122.17
2023-05-05T13:44:27.664Z,122.11
2023-05-05T13:45:27.664Z,125.54
2023-05-05T13:46:27.669Z,124.61
2023-05-05T13:47:27.682Z,126.47
2023-05-05T13:48:28.393Z,126.64
2023-05-05T13:49:27.652Z,130.28
2023-05-05T13:50:27.651Z,126.14
2023-05-05T13:51:27.696Z,132.70
2023-05-05T13:52:28.578Z,127.96
2023-05-05T13:53:28.350Z,132.13
2023-05-05T13:54:28.149Z,129.16
2023-05-05T13:55:28.158Z,129.44
2023-05-05T13:56:28.154Z,134.67
2023-05-05T13:57:28.212Z,131.66
2023-05-05T13:58:28.150Z,133.47
2023-05-05T13:59:28.154Z,136.70
2023-05-05T14:00:28.863Z,134.12
2023-05-05T14:01:28.250Z,137.49
2023-05-05T14:02:28.174Z,139.25
2023-05-05T14:03:28.183Z,139.87
2023-05-05T14:04:28.296Z,139.51
2023-05-05T14:05:28.155Z,137.94
2023-05-05T14:06:28.150Z,139.59
2023-05-05T14:07:28.150Z,141.58
2023-05-05T14:08:28.174Z,141.06
2023-05-05T14:09:28.300Z,142.80
2023-05-05T14:10:28.147Z,141.23
2023-05-05T14:11:28.153Z,143.05
2023-05-05T14:12:28.159Z,144.82
2023-05-05T14:13:28.457Z,146.84
2023-05-05T14:14:28.176Z,145.50
2023-05-05T14:15:28.404Z,147.88
2023-05-05T14:16:28.186Z,148.69
2023-05-05T14:17:28.169Z,148.82
2023-05-05T14:18:28.205Z,151.26
2023-05-05T14:19:28.140Z,151.70
2023-05-05T14:20:28.142Z,150.92
2023-05-05T14:21:28.149Z,151.85
2023-05-05T14:22:28.159Z,150.02
2023-05-05T14:23:28.149Z,151.75
2023-05-05T14:24:28.463Z,154.49
2023-05-05T14:25:28.227Z,152.41
2023-05-05T14:26:28.218Z,155.05
2023-05-05T14:27:28.266Z,154.22
2023-05-05T14:28:28.292Z,157.40
2023-05-05T14:29:28.354Z,156.61
2023-05-05T14:30:28.365Z,156.48
2023-05-05T14:31:28.433Z,156.67
2023-05-05T14:32:28.486Z,156.67
2023-05-05T14:33:28.475Z,157.87
2023-05-05T14:34:28.480Z,156.82
2023-05-05T14:35:28.503Z,157.95
2023-05-05T14:36:28.534Z,159.99
2023-05-05T14:37:28.575Z,159.97
2023-05-05T14:38:28.753Z,159.57
2023-05-05T14:39:28.635Z,161.16
2023-05-05T14:40:28.646Z,160.08
2023-05-05T14:41:28.694Z,163.35
2023-05-05T14:42:28.712Z,163.95
2023-05-05T14:43:28.774Z,163.85
2023-05-05T14:44:28.789Z,160.17
2023-05-05T14:45:28.794Z,165.30
2023-05-05T14:46:29.014Z,164.76
2023-05-05T14:47:28.874Z,165.21
2023-05-05T14:48:28.933Z,168.09
2023-05-05T14:49:28.923Z,167.89
2023-05-05T14:50:28.962Z,168.16
2023-05-05T14:51:28.975Z,167.21
2023-05-05T14:52:29.001Z,169.16
2023-05-05T14:53:29.027Z,169.32
2023-05-05T14:54:29.228Z,172.12
2023-05-05T14:55:29.108Z,174.43
2023-05-05T14:56:29.150Z,173.47
2023-05-05T14:57:29.266Z,175.40
2023-05-05T14:58:29.230Z,176.38
2023-05-05T14:59:29.248Z,177.59
2023-05-05T15:00:29.299Z,178.01
2023-05-05T15:01:29.330Z,176.87
2023-05-05T15:02:29.405Z,177.91
2023-05-05T15:03:29.444Z,176.74
2023-05-05T15:04:29.434Z,181.48
2023-05-05T15:05:29.450Z,181.53
2023-05-05T15:06:29.480Z,181.39
2023-05-05T15:07:29.507Z,181.54
2023-05-05T15:08:29.529Z,183.60
2023-05-05T15:09:29.572Z,185.22
2023-05-05T15:10:29.655Z,185.78
2023-05-05T15:11:29.662Z,186.95
2023-05-05T15:12:29.724Z,185.42
2023-05-05T15:13:29.891Z,184.80
2023-05-05T15:14:29.843Z,182.37
2023-05-05T15:15:29.889Z,183.74
2023-05-05T15:16:30.028Z,185.14
2023-05-05T15:17:30.029Z,184.84
2023-05-05T15:18:30.084Z,185.36
2023-05-05T15:19:30.154Z,189.13
2023-05-05T15:20:30.250Z,184.79
2023-05-05T15:21:30.282Z,186.25
2023-05-05T15:22:30.351Z,188.12
2023-05-05T15:23:30.413Z,189.41
2023-05-05T15:24:30.470Z,188.64
2023-05-05T15:25:30.536Z,185.67
2023-05-05T15:26:30.607Z,186.94
2023-05-05T15:27:30.649Z,188.43
2023-05-05T15:28:30.732Z,188.02
2023-05-05T15:29:30.923Z,188.93
2023-05-05T15:30:30.850Z,187.39
2023-05-05T15:31:30.957Z,189.90
2023-05-05T15:32:30.995Z,189.87
2023-05-05T15:33:31.077Z,188.01
2023-05-05T15:34:31.102Z,189.92
2023-05-05T15:35:31.179Z,188.39
2023-05-05T15:36:31.232Z,189.70
2023-05-05T15:37:31.294Z,191.01
2023-05-05T15:38:31.378Z,190.11
2023-05-05T15:39:31.449Z,191.29
2023-05-05T15:40:31.495Z,190.29
2023-05-05T15:41:31.922Z,190.23
2023-05-05T15:42:31.961Z,189.29
2023-05-05T15:43:31.998Z,191.82
2023-05-05T15:44:31.969Z,187.38
2023-05-05T15:45:31.994Z,192.88
2023-05-05T15:46:32.013Z,193.78
2023-05-05T15:47:31.996Z,191.56
2023-05-05T15:48:32.004Z,192.90
2023-05-05T15:49:32.090Z,193.31
2023-05-05T15:50:32.129Z,189.55
2023-05-05T15:51:32.217Z,191.77
2023-05-05T15:52:32.230Z,193.72
2023-05-05T15:53:32.281Z,190.05
2023-05-05T15:54:32.337Z,192.61
2023-05-05T15:55:32.398Z,191.14
2023-05-05T15:56:32.451Z,189.98
2023-05-05T15:57:32.491Z,190.02
2023-05-05T15:58:32.527Z,189.88
2023-05-05T15:59:32.567Z,188.59
2023-05-05T16:00:32.605Z,189.96
2023-05-05T16:01:32.778Z,189.72
2023-05-05T16:02:32.812Z,189.09
2023-05-05T16:03:32.826Z,190.61
2023-05-05T16:04:32.829Z,189.04
2023-05-05T16:05:32.866Z,188.00
2023-05-05T16:06:32.906Z,190.87
2023-05-05T16:07:32.945Z,188.68
2023-05-05T16:08:32.995Z,190.09
2023-05-05T16:09:33.059Z,187.60
2023-05-05T16:10:33.116Z,186.63
2023-05-05T16:11:33.168Z,189.31
2023-05-05T16:12:33.234Z,187.19
2023-05-05T16:13:33.283Z,186.56
2023-05-05T16:14:33.429Z,186.58
2023-05-05T16:15:33.413Z,183.20
2023-05-05T16:16:33.484Z,184.94
2023-05-05T16:17:33.730Z,188.54
2023-05-05T16:18:33.608Z,188.10
2023-05-05T16:19:33.667Z,187.55
2023-05-05T16:20:33.751Z,185.90
2023-05-05T16:21:33.795Z,186.49
2023-05-05T16:22:33.859Z,187.88
2023-05-05T16:23:33.923Z,183.23
2023-05-05T16:24:33.985Z,183.07
2023-05-05T16:25:34.045Z,184.15
2023-05-05T16:26:34.114Z,182.86
2023-05-05T16:27:34.166Z,182.94
2023-05-05T16:28:34.396Z,182.88
2023-05-05T16:29:34.278Z,181.63
2023-05-05T16:30:34.340Z,182.66
2023-05-05T16:31:34.470Z,181.32
2023-05-05T16:32:34.493Z,184.29
2023-05-05T16:33:34.584Z,183.65
2023-05-05T16:34:34.646Z,179.36
2023-05-05T16:35:34.641Z,178.24
2023-05-05T16:36:34.689Z,182.57
2023-05-05T16:37:34.753Z,182.89
2023-05-05T16:38:34.849Z,182.27
2023-05-05T16:39:34.882Z,180.33
2023-05-05T16:40:34.937Z,179.93
2023-05-05T16:41:35.030Z,181.98
2023-05-05T16:42:35.043Z,181.31
2023-05-05T16:43:35.095Z,180.55
2023-05-05T16:44:35.156Z,183.03
2023-05-05T16:45:35.217Z,182.36
2023-05-05T16:46:35.400Z,184.64
2023-05-05T16:47:35.371Z,183.37
2023-05-05T16:48:35.403Z,180.87
2023-05-05T16:49:35.690Z,184.73
2023-05-05T16:50:35.538Z,182.39
2023-05-05T16:51:35.575Z,181.60
2023-05-05T16:52:35.635Z,183.77
2023-05-05T16:53:35.690Z,182.53
2023-05-05T16:54:35.760Z,184.98
2023-05-05T16:55:35.814Z,187.46
2023-05-05T16:56:35.905Z,185.89
2023-05-05T16:57:35.953Z,188.65
2023-05-05T16:58:36.001Z,185.96
2023-05-05T16:59:36.060Z,185.06
2023-05-05T17:00:36.120Z,187.85
2023-05-05T17:01:36.263Z,186.99
2023-05-05T17:02:36.292Z,187.64
2023-05-05T17:03:36.311Z,188.45
2023-05-05T17:04:36.367Z,187.60
2023-05-05T17:05:36.608Z,189.10
2023-05-05T17:06:36.501Z,189.25
2023-05-05T17:07:36.557Z,189.99
2023-05-05T17:08:36.971Z,189.62
2023-05-05T17:09:37.019Z,189.43
2023-05-05T17:10:37.037Z,187.15
2023-05-05T17:11:37.032Z,188.85
2023-05-05T17:12:37.054Z,190.24
2023-05-05T17:13:37.023Z,186.98
2023-05-05T17:14:37.018Z,189.53
2023-05-05T17:15:37.049Z,187.07
2023-05-05T17:16:37.196Z,188.56
2023-05-05T17:17:37.193Z,189.34
2023-05-05T17:18:37.247Z,188.31
2023-05-05T17:19:37.324Z,188.03
2023-05-05T17:20:37.402Z,189.97
2023-05-05T17:21:37.584Z,190.89
2023-05-05T17:22:37.524Z,186.56
2023-05-05T17:23:37.621Z,191.27
2023-05-05T17:24:38.037Z,189.16
2023-05-05T17:25:38.026Z,190.53
2023-05-05T17:26:38.036Z,187.33
2023-05-05T17:27:38.025Z,189.76
2023-05-05T17:28:38.025Z,191.56
2023-05-05T17:29:38.035Z,188.57
2023-05-05T17:30:38.077Z,190.79
2023-05-05T17:31:38.146Z,191.11
2023-05-05T17:32:38.117Z,191.13
2023-05-05T17:33:38.082Z,189.65
2023-05-05T17:34:38.116Z,189.43
2023-05-05T17:35:38.153Z,190.37
2023-05-05T17:36:38.195Z,191.37
2023-05-05T17:37:38.247Z,189.68
2023-05-05T17:38:38.327Z,190.38
2023-05-05T17:39:38.306Z,190.11
2023-05-05T17:40:38.761Z,189.60
2023-05-05T17:41:39.027Z,190.58
2023-05-05T17:42:38.850Z,190.66
2023-05-05T17:43:39.159Z,189.04
2023-05-05T17:44:39.054Z,190.58
2023-05-05T17:45:38.737Z,190.93
2023-05-05T17:46:38.807Z,189.77
2023-05-05T17:47:38.904Z,188.75
2023-05-05T17:48:38.518Z,190.97
2023-05-05T17:49:38.485Z,189.05
2023-05-05T17:50:38.472Z,191.55
2023-05-05T17:51:38.979Z,191.18
2023-05-05T17:52:38.457Z,192.19
2023-05-05T17:53:38.660Z,189.88
2023-05-05T17:54:38.460Z,191.74
2023-05-05T17:55:38.493Z,191.24
2023-05-05T17:56:38.498Z,191.90
2023-05-05T17:57:38.472Z,190.01
2023-05-05T17:58:38.484Z,190.27
2023-05-05T17:59:38.490Z,193.21
2023-05-05T18:00:38.545Z,190.53
2023-05-05T18:01:38.607Z,189.41
2023-05-05T18:02:38.588Z,190.26
2023-05-05T18:03:40.068Z,189.56
2023-05-05T18:04:38.488Z,190.54
2023-05-05T18:05:38.466Z,193.03
2023-05-05T18:06:38.491Z,191.34
2023-05-05T18:07:38.460Z,189.66
2023-05-05T18:08:38.446Z,189.15